Back to Top

Language: 

My Weather Underground Personal Weather Station Historical Data with Graphs...

Delerius Weather Station Historical Data
Daily Summary for October 31, 2017 Units:  English    Metric   Both
« Previous Day
Next Day »
Daily Weekly Monthly Yearly Custom
  High: Low: Average:
Temperature: 57.7 °F 45.7 °F 52 °F
Dew Point: 51.9 °F 42.8 °F 48 °F
Humidity: 95 % 80 % 87 %
Wind Speed: 11.0 mph 0.0 mph 2.5 mph
Wind Gust: 18.0 mph - -
Wind:- - WSW
Pressure: 30.30 in 30.10 in -
Precipitation: 0.00 in    
Historical Graphs
 
 
Tabular Data for October 31, 2017
Time Temperature Dew Point Pressure Wind Wind Speed Wind Gust Humidity Rainfall Rate (Hourly) solar Conditions
00:02 47.5 °F 42.9 °F 30.30 in West 5.0 mph 7.0 mph 84 % 0.00 in 0 W/m2
00:07 47.7 °F 43.1 °F 30.30 in WNW 4.0 mph 7.0 mph 84 % 0.00 in 0 W/m2
00:12 47.7 °F 42.8 °F 30.30 in West 3.0 mph 6.0 mph 83 % 0.00 in 0 W/m2
00:17 47.7 °F 42.8 °F 30.30 in Calm   2.0 mph 83 % 0.00 in 0 W/m2
00:22 47.8 °F 42.9 °F 30.30 in West 1.0 mph 4.0 mph 83 % 0.00 in 0 W/m2
00:27 47.8 °F 42.9 °F 30.29 in Calm   1.0 mph 83 % 0.00 in 0 W/m2
00:32 47.8 °F 42.9 °F 30.29 in Calm     83 % 0.00 in 0 W/m2
00:37 47.8 °F 42.9 °F 30.29 in Calm   1.0 mph 83 % 0.00 in 0 W/m2
00:42 47.8 °F 42.9 °F 30.29 in Calm     83 % 0.00 in 0 W/m2
00:47 47.8 °F 42.9 °F 30.29 in Calm   1.0 mph 83 % 0.00 in 0 W/m2
00:52 47.8 °F 43.2 °F 30.28 in Calm     84 % 0.00 in 0 W/m2
00:58 47.8 °F 43.2 °F 30.28 in Calm   1.0 mph 84 % 0.00 in 0 W/m2
01:03 47.8 °F 43.2 °F 30.28 in Calm     84 % 0.00 in 0 W/m2
01:08 47.8 °F 43.5 °F 30.28 in Calm     85 % 0.00 in 0 W/m2
01:13 47.8 °F 43.5 °F 30.27 in Calm     85 % 0.00 in 0 W/m2
01:18 47.7 °F 43.4 °F 30.27 in Calm     85 % 0.00 in 0 W/m2
01:28 47.7 °F 43.7 °F 30.28 in Calm     86 % 0.00 in 0 W/m2
01:33 47.5 °F 43.5 °F 30.28 in Calm   1.0 mph 86 % 0.00 in 0 W/m2
01:38 47.5 °F 43.5 °F 30.27 in Calm     86 % 0.00 in 0 W/m2
01:43 47.5 °F 43.8 °F 30.28 in Calm   1.0 mph 87 % 0.00 in 0 W/m2
01:48 47.5 °F 43.8 °F 30.27 in Calm     87 % 0.00 in 0 W/m2
01:53 47.5 °F 44.1 °F 30.27 in Calm     88 % 0.00 in 0 W/m2
01:58 47.3 °F 43.9 °F 30.27 in Calm     88 % 0.00 in 0 W/m2
01:59 47.1 °F 43.7 °F 30.27 in Calm     88 % 0.00 in 0 W/m2
02:04 47.1 °F 43.7 °F 30.27 in Calm     88 % 0.00 in 0 W/m2
02:09 46.9 °F 43.9 °F 30.27 in Calm   1.0 mph 89 % 0.00 in 0 W/m2
02:14 46.9 °F 43.9 °F 30.27 in Calm   1.0 mph 89 % 0.00 in 0 W/m2
02:19 46.8 °F 43.7 °F 30.27 in Calm     89 % 0.00 in 0 W/m2
02:29 46.8 °F 43.7 °F 30.27 in Calm     89 % 0.00 in 0 W/m2
02:35 46.6 °F 43.5 °F 30.26 in Calm     89 % 0.00 in 0 W/m2
02:40 46.6 °F 43.8 °F 30.26 in Calm     90 % 0.00 in 0 W/m2
02:45 46.6 °F 43.8 °F 30.26 in Calm     90 % 0.00 in 0 W/m2
02:50 46.6 °F 43.8 °F 30.26 in Calm     90 % 0.00 in 0 W/m2
02:55 46.6 °F 43.8 °F 30.26 in Calm     90 % 0.00 in 0 W/m2
03:00 46.4 °F 43.6 °F 30.25 in Calm     90 % 0.00 in 0 W/m2
03:05 46.4 °F 43.6 °F 30.25 in Calm     90 % 0.00 in 0 W/m2
03:10 46.4 °F 43.6 °F 30.25 in Calm     90 % 0.00 in 0 W/m2
03:15 46.4 °F 43.9 °F 30.25 in Calm   1.0 mph 91 % 0.00 in 0 W/m2
03:22 46.4 °F 43.9 °F 30.25 in Calm   1.0 mph 91 % 0.00 in 0 W/m2
03:23 46.4 °F 43.9 °F 30.25 in Calm     91 % 0.00 in 0 W/m2
03:26 46.4 °F 43.9 °F 30.25 in Calm     91 % 0.00 in 0 W/m2
03:30 46.4 °F 43.9 °F 30.25 in Calm     91 % 0.00 in 0 W/m2
03:34 46.6 °F 44.1 °F 30.25 in Calm     91 % 0.00 in 0 W/m2
03:45 46.6 °F 44.4 °F 30.25 in Calm     92 % 0.00 in 0 W/m2
03:50 46.6 °F 44.4 °F 30.24 in Calm     92 % 0.00 in 0 W/m2
03:55 46.6 °F 44.4 °F 30.24 in Calm     92 % 0.00 in 0 W/m2
04:00 46.6 °F 44.4 °F 30.24 in Calm     92 % 0.00 in 0 W/m2
04:05 46.6 °F 44.4 °F 30.24 in Calm     92 % 0.00 in 0 W/m2
04:10 46.6 °F 44.4 °F 30.24 in Calm     92 % 0.00 in 0 W/m2
04:15 46.6 °F 44.4 °F 30.24 in Calm     92 % 0.00 in 0 W/m2
04:20 46.6 °F 44.4 °F 30.23 in Calm     92 % 0.00 in 0 W/m2
04:25 46.6 °F 44.4 °F 30.23 in Calm     92 % 0.00 in 0 W/m2
04:30 46.6 °F 44.4 °F 30.23 in Calm   1.0 mph 92 % 0.00 in 0 W/m2
04:35 46.6 °F 44.7 °F 30.23 in Calm     93 % 0.00 in 0 W/m2
04:40 46.6 °F 44.7 °F 30.23 in Calm     93 % 0.00 in 0 W/m2
04:45 46.4 °F 44.5 °F 30.23 in Calm     93 % 0.00 in 0 W/m2
04:50 46.4 °F 44.5 °F 30.23 in Calm     93 % 0.00 in 0 W/m2
04:55 46.2 °F 44.3 °F 30.23 in Calm     93 % 0.00 in 0 W/m2
05:05 46.2 °F 44.3 °F 30.22 in Calm   1.0 mph 93 % 0.00 in 0 W/m2
05:10 46.2 °F 44.3 °F 30.22 in Calm     93 % 0.00 in 0 W/m2
05:15 46.2 °F 44.3 °F 30.22 in Calm     93 % 0.00 in 0 W/m2
05:20 46.2 °F 44.3 °F 30.22 in Calm     93 % 0.00 in 0 W/m2
05:25 46.2 °F 44.3 °F 30.22 in Calm     93 % 0.00 in 0 W/m2
05:30 46.2 °F 44.3 °F 30.23 in Calm     93 % 0.00 in 0 W/m2
05:35 46.0 °F 44.1 °F 30.23 in WNW 1.0 mph 8.0 mph 93 % 0.00 in 0 W/m2
05:40 46.2 °F 44.6 °F 30.23 in Calm   2.0 mph 94 % 0.00 in 0 W/m2
05:45 46.2 °F 44.3 °F 30.23 in Calm     93 % 0.00 in 0 W/m2
05:50 46.2 °F 44.3 °F 30.23 in Calm   2.0 mph 93 % 0.00 in 0 W/m2
05:55 46.0 °F 44.4 °F 30.23 in West 1.0 mph 3.0 mph 94 % 0.00 in 0 W/m2
06:00 45.9 °F 44.2 °F 30.22 in Calm   1.0 mph 94 % 0.00 in 0 W/m2
06:05 45.7 °F 44.1 °F 30.22 in Calm     94 % 0.00 in 0 W/m2
06:10 45.7 °F 44.1 °F 30.22 in Calm   1.0 mph 94 % 0.00 in 0 W/m2
06:15 45.9 °F 44.2 °F 30.22 in WSW 2.0 mph 6.0 mph 94 % 0.00 in 0 W/m2
06:20 46.4 °F 45.0 °F 30.22 in WSW 2.0 mph 5.0 mph 95 % 0.00 in 0 W/m2
06:25 46.8 °F 45.4 °F 30.22 in SW 3.0 mph 6.0 mph 95 % 0.00 in 0 W/m2
06:30 47.5 °F 46.1 °F 30.21 in WSW 1.0 mph 4.0 mph 95 % 0.00 in 0 W/m2
06:35 47.8 °F 46.5 °F 30.21 in WSW 1.0 mph 2.0 mph 95 % 0.00 in 0 W/m2
06:40 48.0 °F 46.7 °F 30.21 in WSW 1.0 mph 2.0 mph 95 % 0.00 in 0 W/m2
06:46 48.2 °F 46.8 °F 30.21 in WSW 1.0 mph 2.0 mph 95 % 0.00 in 0 W/m2
06:51 48.2 °F 46.8 °F 30.21 in Calm     95 % 0.00 in 0 W/m2
06:56 48.4 °F 47.0 °F 30.21 in Calm     95 % 0.00 in 0 W/m2
07:01 48.4 °F 46.7 °F 30.21 in Calm   1.0 mph 94 % 0.00 in 0 W/m2
07:06 48.6 °F 46.9 °F 30.21 in Calm   1.0 mph 94 % 0.00 in 0 W/m2
07:11 48.7 °F 47.1 °F 30.21 in Calm     94 % 0.00 in 0 W/m2
07:21 48.9 °F 47.3 °F 30.21 in WSW 4.0 mph 5.0 mph 94 % 0.00 in 9 W/m2
07:26 49.3 °F 47.6 °F 30.21 in West 3.0 mph 5.0 mph 94 % 0.00 in 12 W/m2
07:31 49.6 °F 48.0 °F 30.21 in WSW 4.0 mph 6.0 mph 94 % 0.00 in 19 W/m2
07:36 50.0 °F 48.3 °F 30.21 in West 3.0 mph 4.0 mph 94 % 0.00 in 32 W/m2
07:41 50.2 °F 48.2 °F 30.21 in West 1.0 mph 2.0 mph 93 % 0.00 in 32 W/m2
07:46 50.2 °F 48.2 °F 30.20 in SW 2.0 mph 5.0 mph 93 % 0.00 in 35 W/m2
07:51 50.4 °F 48.4 °F 30.21 in SW 2.0 mph 5.0 mph 93 % 0.00 in 39 W/m2
07:56 50.5 °F 48.6 °F 30.20 in WSW 2.0 mph 5.0 mph 93 % 0.00 in 39 W/m2
08:01 50.5 °F 48.6 °F 30.20 in WSW 3.0 mph 5.0 mph 93 % 0.00 in 32 W/m2
08:06 50.7 °F 48.5 °F 30.20 in WSW 3.0 mph 5.0 mph 92 % 0.00 in 35 W/m2
08:11 50.7 °F 48.5 °F 30.21 in WSW 1.0 mph 4.0 mph 92 % 0.00 in 42 W/m2
08:16 50.9 °F 48.7 °F 30.21 in Calm   3.0 mph 92 % 0.00 in 46 W/m2
08:21 50.9 °F 48.7 °F 30.21 in Calm   1.0 mph 92 % 0.00 in 44 W/m2
08:26 50.9 °F 48.7 °F 30.21 in WSW 1.0 mph 2.0 mph 92 % 0.00 in 47 W/m2
08:31 50.7 °F 48.2 °F 30.21 in Calm   2.0 mph 91 % 0.00 in 58 W/m2
08:36 50.5 °F 48.0 °F 30.21 in Calm   2.0 mph 91 % 0.00 in 76 W/m2
08:41 50.5 °F 48.0 °F 30.21 in Calm   1.0 mph 91 % 0.00 in 86 W/m2
08:46 50.4 °F 47.8 °F 30.20 in North 2.0 mph 3.0 mph 91 % 0.00 in 79 W/m2
08:51 50.4 °F 47.8 °F 30.21 in Calm   1.0 mph 91 % 0.00 in 67 W/m2
08:56 50.4 °F 47.8 °F 30.20 in Calm   2.0 mph 91 % 0.00 in 69 W/m2
09:01 50.5 °F 48.0 °F 30.20 in Calm     91 % 0.00 in 77 W/m2
09:06 50.5 °F 48.0 °F 30.20 in Calm   1.0 mph 91 % 0.00 in 81 W/m2
09:11 50.5 °F 48.0 °F 30.20 in Calm     91 % 0.00 in 81 W/m2
09:16 50.7 °F 48.5 °F 30.20 in Calm   2.0 mph 92 % 0.00 in 81 W/m2
09:21 50.9 °F 48.7 °F 30.19 in Calm     92 % 0.00 in 90 W/m2
09:26 51.1 °F 48.8 °F 30.20 in Calm     92 % 0.00 in 100 W/m2
09:31 51.3 °F 49.0 °F 30.20 in West 4.0 mph 8.0 mph 92 % 0.00 in 113 W/m2
09:36 51.6 °F 49.4 °F 30.20 in West 2.0 mph 5.0 mph 92 % 0.00 in 118 W/m2
09:41 52.2 °F 49.9 °F 30.20 in West 5.0 mph 8.0 mph 92 % 0.00 in 127 W/m2
09:46 52.7 °F 50.1 °F 30.20 in West 5.0 mph 7.0 mph 91 % 0.00 in 125 W/m2
09:51 53.1 °F 50.5 °F 30.20 in West 4.0 mph 7.0 mph 91 % 0.00 in 114 W/m2
09:56 53.4 °F 50.6 °F 30.20 in West 5.0 mph 11.0 mph 90 % 0.00 in 123 W/m2
10:01 53.8 °F 50.6 °F 30.20 in West 7.0 mph 11.0 mph 89 % 0.00 in 121 W/m2
10:11 54.1 °F 50.4 °F 30.21 in West 3.0 mph 7.0 mph 87 % 0.00 in 120 W/m2
10:17 54.3 °F 50.5 °F 30.21 in West 3.0 mph 5.0 mph 87 % 0.00 in 149 W/m2
10:22 54.7 °F 50.6 °F 30.20 in West 4.0 mph 7.0 mph 86 % 0.00 in 151 W/m2
10:27 54.9 °F 50.8 °F 30.20 in West 4.0 mph 8.0 mph 86 % 0.00 in 105 W/m2
10:32 54.9 °F 50.8 °F 30.20 in WSW 3.0 mph 7.0 mph 86 % 0.00 in 109 W/m2
10:39 55.0 °F 50.6 °F 30.20 in West 1.0 mph 5.0 mph 85 % 0.00 in 104 W/m2
10:44 55.0 °F 50.6 °F 30.20 in West 1.0 mph 2.0 mph 85 % 0.00 in 107 W/m2
10:49 55.2 °F 50.8 °F 30.19 in WNW 4.0 mph 8.0 mph 85 % 0.00 in 120 W/m2
10:54 55.2 °F 50.5 °F 30.19 in West 7.0 mph 11.0 mph 84 % 0.00 in 132 W/m2
11:00 55.2 °F 50.8 °F 30.18 in West 4.0 mph 6.0 mph 85 % 0.00 in 148 W/m2
11:05 55.2 °F 50.5 °F 30.19 in West 6.0 mph 9.0 mph 84 % 0.00 in 153 W/m2
11:10 55.4 °F 50.6 °F 30.19 in West 7.0 mph 12.0 mph 84 % 0.00 in 155 W/m2
11:15 55.6 °F 50.8 °F 30.18 in West 8.0 mph 12.0 mph 84 % 0.00 in 158 W/m2
11:20 55.6 °F 50.8 °F 30.19 in West 8.0 mph 12.0 mph 84 % 0.00 in 162 W/m2
11:25 55.8 °F 51.0 °F 30.19 in West 8.0 mph 12.0 mph 84 % 0.00 in 162 W/m2
11:30 55.8 °F 51.0 °F 30.18 in West 8.0 mph 12.0 mph 84 % 0.00 in 153 W/m2
11:31 55.8 °F 50.7 °F 30.19 in West 8.0 mph 12.0 mph 83 % 0.00 in 153 W/m2
11:41 55.9 °F 51.2 °F 30.18 in West 3.0 mph 6.0 mph 84 % 0.00 in 137 W/m2
11:46 55.9 °F 51.2 °F 30.17 in West 5.0 mph 9.0 mph 84 % 0.00 in 135 W/m2
11:51 56.1 °F 51.0 °F 30.17 in West 5.0 mph 9.0 mph 83 % 0.00 in 132 W/m2
11:56 56.1 °F 51.0 °F 30.17 in West 5.0 mph 8.0 mph 83 % 0.00 in 130 W/m2
12:01 56.1 °F 51.0 °F 30.17 in West 2.0 mph 6.0 mph 83 % 0.00 in 134 W/m2
12:06 56.3 °F 50.9 °F 30.17 in Calm   2.0 mph 82 % 0.00 in 144 W/m2
12:11 56.1 °F 51.0 °F 30.17 in Calm   1.0 mph 83 % 0.00 in 151 W/m2
12:16 56.1 °F 51.0 °F 30.16 in Calm     83 % 0.00 in 155 W/m2
12:21 56.1 °F 51.4 °F 30.17 in Calm     84 % 0.00 in 156 W/m2
12:26 56.3 °F 51.2 °F 30.17 in Calm     83 % 0.00 in 155 W/m2
12:31 56.5 °F 51.4 °F 30.17 in Calm     83 % 0.00 in 149 W/m2
12:36 56.7 °F 51.6 °F 30.17 in West 2.0 mph 4.0 mph 83 % 0.00 in 144 W/m2
12:41 56.7 °F 51.6 °F 30.18 in West 1.0 mph 2.0 mph 83 % 0.00 in 144 W/m2
12:46 56.7 °F 51.6 °F 30.18 in West 6.0 mph 11.0 mph 83 % 0.00 in 142 W/m2
12:51 56.8 °F 51.4 °F 30.17 in West 5.0 mph 9.0 mph 82 % 0.00 in 139 W/m2
12:56 57.0 °F 51.6 °F 30.17 in West 10.0 mph 18.0 mph 82 % 0.00 in 134 W/m2
13:01 57.0 °F 51.2 °F 30.17 in West 11.0 mph 16.0 mph 81 % 0.00 in 132 W/m2
13:06 56.8 °F 51.1 °F 30.17 in West 8.0 mph 12.0 mph 81 % 0.00 in 141 W/m2
13:11 57.0 °F 51.2 °F 30.17 in West 8.0 mph 13.0 mph 81 % 0.00 in 146 W/m2
13:16 57.0 °F 51.2 °F 30.17 in West 7.0 mph 11.0 mph 81 % 0.00 in 148 W/m2
13:21 57.2 °F 51.4 °F 30.16 in West 9.0 mph 12.0 mph 81 % 0.00 in 144 W/m2
13:26 57.2 °F 51.4 °F 30.16 in West 8.0 mph 13.0 mph 81 % 0.00 in 148 W/m2
13:31 57.4 °F 51.6 °F 30.16 in West 7.0 mph 10.0 mph 81 % 0.00 in 148 W/m2
13:36 57.4 °F 51.6 °F 30.16 in West 7.0 mph 12.0 mph 81 % 0.00 in 146 W/m2
13:41 57.6 °F 51.8 °F 30.16 in WNW 9.0 mph 15.0 mph 81 % 0.00 in 142 W/m2
13:46 57.6 °F 51.8 °F 30.16 in WNW 7.0 mph 10.0 mph 81 % 0.00 in 130 W/m2
13:51 57.7 °F 51.9 °F 30.16 in WNW 5.0 mph 8.0 mph 81 % 0.00 in 121 W/m2
13:56 57.7 °F 51.9 °F 30.16 in West 7.0 mph 10.0 mph 81 % 0.00 in 109 W/m2
14:01 57.7 °F 51.9 °F 30.16 in WNW 5.0 mph 9.0 mph 81 % 0.00 in 102 W/m2
14:06 57.7 °F 51.9 °F 30.16 in WNW 6.0 mph 10.0 mph 81 % 0.00 in 95 W/m2
14:11 57.7 °F 51.6 °F 30.15 in West 6.0 mph 9.0 mph 80 % 0.00 in 90 W/m2
14:16 57.7 °F 51.6 °F 30.16 in West 5.0 mph 12.0 mph 80 % 0.00 in 91 W/m2
14:22 57.7 °F 51.6 °F 30.15 in West 8.0 mph 13.0 mph 80 % 0.00 in 90 W/m2
14:27 57.7 °F 51.6 °F 30.15 in West 3.0 mph 7.0 mph 80 % 0.00 in 81 W/m2
14:32 57.7 °F 51.6 °F 30.15 in West 5.0 mph 9.0 mph 80 % 0.00 in 70 W/m2
14:37 57.6 °F 51.8 °F 30.15 in WSW 6.0 mph 8.0 mph 81 % 0.00 in 72 W/m2
14:42 57.6 °F 51.8 °F 30.14 in West 6.0 mph 9.0 mph 81 % 0.00 in 70 W/m2
14:47 57.4 °F 51.6 °F 30.14 in WSW 7.0 mph 14.0 mph 81 % 0.00 in 72 W/m2
14:52 57.2 °F 51.4 °F 30.13 in WSW 8.0 mph 11.0 mph 81 % 0.00 in 86 W/m2
14:57 57.2 °F 51.4 °F 30.13 in WSW 6.0 mph 9.0 mph 81 % 0.00 in 77 W/m2
15:02 57.2 °F 51.4 °F 30.14 in WSW 6.0 mph 9.0 mph 81 % 0.00 in 65 W/m2
15:07 57.0 °F 51.2 °F 30.13 in West 3.0 mph 6.0 mph 81 % 0.00 in 60 W/m2
15:12 57.0 °F 51.6 °F 30.13 in West 4.0 mph 8.0 mph 82 % 0.00 in 54 W/m2
15:17 57.0 °F 51.6 °F 30.14 in West 6.0 mph 12.0 mph 82 % 0.00 in 46 W/m2
15:22 57.0 °F 51.6 °F 30.14 in West 6.0 mph 10.0 mph 82 % 0.00 in 44 W/m2
15:27 56.8 °F 51.4 °F 30.13 in WSW 6.0 mph 11.0 mph 82 % 0.00 in 40 W/m2
15:32 56.8 °F 51.4 °F 30.13 in West 7.0 mph 12.0 mph 82 % 0.00 in 37 W/m2
15:37 56.7 °F 51.2 °F 30.14 in WNW 3.0 mph 6.0 mph 82 % 0.00 in 35 W/m2
15:42 56.7 °F 51.2 °F 30.13 in WNW 4.0 mph 9.0 mph 82 % 0.00 in 32 W/m2
15:47 56.7 °F 51.2 °F 30.13 in WNW 2.0 mph 5.0 mph 82 % 0.00 in 28 W/m2
15:52 56.7 °F 51.6 °F 30.13 in Calm   2.0 mph 83 % 0.00 in 25 W/m2
15:57 56.7 °F 51.6 °F 30.13 in West 4.0 mph 6.0 mph 83 % 0.00 in 21 W/m2
16:02 56.5 °F 51.1 °F 30.14 in West 6.0 mph 10.0 mph 82 % 0.00 in 18 W/m2
16:03 56.5 °F 51.1 °F 30.14 in West 6.0 mph 10.0 mph 82 % 0.00 in 18 W/m2
16:08 56.5 °F 51.1 °F 30.14 in WNW 3.0 mph 6.0 mph 82 % 0.00 in 14 W/m2
16:13 56.3 °F 50.9 °F 30.14 in West 6.0 mph 9.0 mph 82 % 0.00 in 11 W/m2
16:18 56.1 °F 50.7 °F 30.14 in West 3.0 mph 6.0 mph 82 % 0.00 in 7 W/m2
16:23 56.1 °F 50.7 °F 30.13 in West 6.0 mph 10.0 mph 82 % 0.00 in 5 W/m2
16:28 55.9 °F 50.9 °F 30.13 in West 4.0 mph 7.0 mph 83 % 0.00 in 0 W/m2
16:33 55.9 °F 50.9 °F 30.13 in West 2.0 mph 5.0 mph 83 % 0.00 in 0 W/m2
16:38 55.8 °F 50.7 °F 30.13 in WSW 2.0 mph 5.0 mph 83 % 0.00 in 0 W/m2
16:43 55.8 °F 50.3 °F 30.13 in WNW 1.0 mph 4.0 mph 82 % 0.00 in 0 W/m2
16:48 55.6 °F 50.2 °F 30.13 in WSW 2.0 mph 5.0 mph 82 % 0.00 in 0 W/m2
16:53 55.6 °F 50.2 °F 30.13 in WSW 4.0 mph 6.0 mph 82 % 0.00 in 0 W/m2
16:58 55.4 °F 50.0 °F 30.13 in West 3.0 mph 7.0 mph 82 % 0.00 in 0 W/m2
17:03 55.4 °F 50.0 °F 30.13 in WSW 4.0 mph 7.0 mph 82 % 0.00 in 0 W/m2
17:08 55.2 °F 49.8 °F 30.13 in WSW 6.0 mph 8.0 mph 82 % 0.00 in 0 W/m2
17:13 55.2 °F 49.8 °F 30.12 in WSW 7.0 mph 10.0 mph 82 % 0.00 in 0 W/m2
17:18 55.2 °F 49.8 °F 30.12 in WSW 8.0 mph 12.0 mph 82 % 0.00 in 0 W/m2
17:23 55.2 °F 49.8 °F 30.12 in West 7.0 mph 11.0 mph 82 % 0.00 in 0 W/m2
17:28 55.2 °F 49.8 °F 30.12 in West 8.0 mph 13.0 mph 82 % 0.00 in 0 W/m2
17:33 55.0 °F 49.6 °F 30.12 in West 7.0 mph 11.0 mph 82 % 0.00 in 0 W/m2
17:38 55.0 °F 49.6 °F 30.13 in West 5.0 mph 8.0 mph 82 % 0.00 in 0 W/m2
17:43 55.0 °F 49.6 °F 30.13 in WNW 5.0 mph 7.0 mph 82 % 0.00 in 0 W/m2
17:48 54.9 °F 49.5 °F 30.13 in WNW 6.0 mph 10.0 mph 82 % 0.00 in 0 W/m2
17:49 54.9 °F 49.8 °F 30.13 in WNW 6.0 mph 10.0 mph 83 % 0.00 in 0 W/m2
17:54 54.7 °F 49.6 °F 30.13 in West 6.0 mph 10.0 mph 83 % 0.00 in 0 W/m2
17:59 54.7 °F 49.6 °F 30.13 in West 6.0 mph 10.0 mph 83 % 0.00 in 0 W/m2
18:04 54.5 °F 49.8 °F 30.13 in WNW 5.0 mph 9.0 mph 84 % 0.00 in 0 W/m2
18:09 54.5 °F 49.8 °F 30.13 in WNW 6.0 mph 8.0 mph 84 % 0.00 in 0 W/m2
18:14 54.3 °F 49.6 °F 30.13 in West 6.0 mph 8.0 mph 84 % 0.00 in 0 W/m2
18:20 54.3 °F 49.3 °F 30.13 in West 4.0 mph 6.0 mph 83 % 0.00 in 0 W/m2
18:25 54.5 °F 49.4 °F 30.13 in West 3.0 mph 8.0 mph 83 % 0.00 in 0 W/m2
18:30 54.5 °F 49.4 °F 30.13 in West 2.0 mph 5.0 mph 83 % 0.00 in 0 W/m2
18:35 54.5 °F 49.4 °F 30.13 in WSW 2.0 mph 6.0 mph 83 % 0.00 in 0 W/m2
18:40 54.3 °F 49.3 °F 30.13 in North 1.0 mph 6.0 mph 83 % 0.00 in 0 W/m2
18:45 54.3 °F 49.3 °F 30.13 in NW 1.0 mph 2.0 mph 83 % 0.00 in 0 W/m2
18:50 54.3 °F 49.3 °F 30.13 in WNW 2.0 mph 7.0 mph 83 % 0.00 in 0 W/m2
18:55 54.1 °F 49.1 °F 30.13 in SW 2.0 mph 5.0 mph 83 % 0.00 in 0 W/m2
19:00 54.1 °F 49.1 °F 30.13 in SW 4.0 mph 6.0 mph 83 % 0.00 in 0 W/m2
19:05 54.3 °F 49.3 °F 30.13 in WSW 4.0 mph 9.0 mph 83 % 0.00 in 0 W/m2
19:10 54.3 °F 49.3 °F 30.13 in West 4.0 mph 8.0 mph 83 % 0.00 in 0 W/m2
19:15 54.3 °F 48.9 °F 30.13 in WSW 5.0 mph 8.0 mph 82 % 0.00 in 0 W/m2
19:20 54.3 °F 48.9 °F 30.12 in West 5.0 mph 7.0 mph 82 % 0.00 in 0 W/m2
19:25 54.3 °F 48.9 °F 30.12 in West 5.0 mph 8.0 mph 82 % 0.00 in 0 W/m2
19:30 54.3 °F 48.9 °F 30.12 in West 3.0 mph 6.0 mph 82 % 0.00 in 0 W/m2
19:35 54.1 °F 48.8 °F 30.12 in WNW 4.0 mph 9.0 mph 82 % 0.00 in 0 W/m2
19:40 54.1 °F 48.8 °F 30.13 in WNW 4.0 mph 6.0 mph 82 % 0.00 in 0 W/m2
19:45 54.0 °F 48.9 °F 30.12 in WNW 3.0 mph 7.0 mph 83 % 0.00 in 0 W/m2
19:50 53.8 °F 48.7 °F 30.12 in WNW 3.0 mph 6.0 mph 83 % 0.00 in 0 W/m2
19:51 53.8 °F 48.7 °F 30.12 in WNW 2.0 mph 6.0 mph 83 % 0.00 in 0 W/m2
19:56 53.8 °F 48.7 °F 30.11 in West 6.0 mph 10.0 mph 83 % 0.00 in 0 W/m2
20:01 53.8 °F 49.1 °F 30.11 in West 4.0 mph 7.0 mph 84 % 0.00 in 0 W/m2
20:06 53.8 °F 49.1 °F 30.11 in West 1.0 mph 3.0 mph 84 % 0.00 in 0 W/m2
20:11 53.8 °F 49.1 °F 30.11 in SE 1.0 mph 2.0 mph 84 % 0.00 in 0 W/m2
20:20 53.4 °F 48.7 °F 30.11 in ESE 1.0 mph 2.0 mph 84 % 0.00 in 0 W/m2
20:27 53.2 °F 48.5 °F 30.11 in East 1.0 mph 3.0 mph 84 % 0.00 in 0 W/m2
20:32 53.2 °F 48.5 °F 30.11 in Calm   1.0 mph 84 % 0.00 in 0 W/m2
20:37 53.1 °F 48.4 °F 30.11 in Calm     84 % 0.00 in 0 W/m2
20:42 52.9 °F 48.5 °F 30.12 in East 1.0 mph 3.0 mph 85 % 0.00 in 0 W/m2
20:47 52.9 °F 48.5 °F 30.12 in East 2.0 mph 4.0 mph 85 % 0.00 in 0 W/m2
20:52 52.9 °F 48.5 °F 30.12 in ENE 1.0 mph 4.0 mph 85 % 0.00 in 0 W/m2
20:57 52.9 °F 48.5 °F 30.12 in ENE 3.0 mph 6.0 mph 85 % 0.00 in 0 W/m2
21:02 52.7 °F 48.3 °F 30.12 in NE 4.0 mph 6.0 mph 85 % 0.00 in 0 W/m2
21:07 52.7 °F 48.3 °F 30.11 in NNE 3.0 mph 5.0 mph 85 % 0.00 in 0 W/m2
21:12 52.7 °F 48.3 °F 30.11 in NE 1.0 mph 3.0 mph 85 % 0.00 in 0 W/m2
21:17 52.5 °F 48.5 °F 30.11 in Calm     86 % 0.00 in 0 W/m2
21:22 52.3 °F 48.3 °F 30.11 in Calm   1.0 mph 86 % 0.00 in 0 W/m2
21:27 52.2 °F 48.1 °F 30.12 in Calm     86 % 0.00 in 0 W/m2
21:32 52.0 °F 47.9 °F 30.11 in NNE 2.0 mph 4.0 mph 86 % 0.00 in 0 W/m2
21:37 52.0 °F 48.2 °F 30.11 in NNE 2.0 mph 4.0 mph 87 % 0.00 in 0 W/m2
21:42 52.0 °F 48.2 °F 30.11 in NNE 2.0 mph 3.0 mph 87 % 0.00 in 0 W/m2
21:47 52.0 °F 48.2 °F 30.11 in Calm   2.0 mph 87 % 0.00 in 0 W/m2
21:52 51.6 °F 47.9 °F 30.11 in Calm     87 % 0.00 in 0 W/m2
21:57 51.6 °F 47.9 °F 30.11 in Calm     87 % 0.00 in 0 W/m2
22:02 51.4 °F 47.7 °F 30.11 in Calm     87 % 0.00 in 0 W/m2
22:07 51.3 °F 47.5 °F 30.11 in West 4.0 mph 8.0 mph 87 % 0.00 in 0 W/m2
22:12 51.3 °F 47.8 °F 30.11 in West 3.0 mph 7.0 mph 88 % 0.00 in 0 W/m2
22:17 51.3 °F 47.8 °F 30.11 in West 5.0 mph 7.0 mph 88 % 0.00 in 0 W/m2
22:22 51.4 °F 48.0 °F 30.11 in West 4.0 mph 6.0 mph 88 % 0.00 in 0 W/m2
22:27 51.4 °F 47.7 °F 30.11 in WNW 3.0 mph 6.0 mph 87 % 0.00 in 0 W/m2
22:32 51.6 °F 47.9 °F 30.11 in Calm   1.0 mph 87 % 0.00 in 0 W/m2
22:37 51.6 °F 47.9 °F 30.10 in Calm     87 % 0.00 in 0 W/m2
22:42 51.4 °F 47.7 °F 30.11 in SW 3.0 mph 6.0 mph 87 % 0.00 in 0 W/m2
22:47 51.3 °F 47.5 °F 30.11 in Calm   1.0 mph 87 % 0.00 in 0 W/m2
22:52 51.1 °F 47.6 °F 30.11 in Calm     88 % 0.00 in 0 W/m2
22:57 51.1 °F 47.6 °F 30.11 in Calm   1.0 mph 88 % 0.00 in 0 W/m2
23:02 51.1 °F 47.6 °F 30.10 in Calm     88 % 0.00 in 0 W/m2
23:07 50.9 °F 47.8 °F 30.10 in Calm     89 % 0.00 in 0 W/m2
23:13 50.9 °F 47.8 °F 30.10 in Calm     89 % 0.00 in 0 W/m2
23:18 50.7 °F 47.6 °F 30.11 in Calm   1.0 mph 89 % 0.00 in 0 W/m2
23:23 50.7 °F 47.6 °F 30.10 in Calm     89 % 0.00 in 0 W/m2
23:28 50.5 °F 47.4 °F 30.10 in Calm     89 % 0.00 in 0 W/m2
23:33 50.5 °F 47.4 °F 30.11 in WSW 1.0 mph 2.0 mph 89 % 0.00 in 0 W/m2
23:38 50.4 °F 47.5 °F 30.10 in Calm     90 % 0.00 in 0 W/m2
23:43 50.4 °F 47.5 °F 30.11 in Calm     90 % 0.00 in 0 W/m2
23:48 50.2 °F 47.4 °F 30.11 in Calm     90 % 0.00 in 0 W/m2
23:53 50.2 °F 47.4 °F 30.11 in Calm     90 % 0.00 in 0 W/m2
23:58 50.2 °F 47.4 °F 30.11 in Calm     90 % 0.00 in 0 W/m2
Delerius-Weather
Compliments of Weather Underground - 2.25 mb

Data updates at regular intervals.